sensor_id;sensor_type;location;lat;lon;timestamp;P1;durP1;ratioP1;P2;durP2;ratioP2
32200;SDS011;18701;45.588;5.288;2024-01-15T00:02:04;42.28;;;20.27;;
32200;SDS011;18701;45.588;5.288;2024-01-15T00:04:31;38.22;;;19.60;;
32200;SDS011;18701;45.588;5.288;2024-01-15T00:07:01;42.47;;;20.02;;
32200;SDS011;18701;45.588;5.288;2024-01-15T00:09:26;44.65;;;21.17;;
32200;SDS011;18701;45.588;5.288;2024-01-15T00:11:52;45.35;;;20.60;;
32200;SDS011;18701;45.588;5.288;2024-01-15T00:14:18;39.40;;;19.05;;
32200;SDS011;18701;45.588;5.288;2024-01-15T00:16:45;43.50;;;20.95;;
32200;SDS011;18701;45.588;5.288;2024-01-15T00:19:11;40.35;;;19.92;;
32200;SDS011;18701;45.588;5.288;2024-01-15T00:21:37;40.00;;;19.65;;
32200;SDS011;18701;45.588;5.288;2024-01-15T00:24:03;45.15;;;20.20;;
32200;SDS011;18701;45.588;5.288;2024-01-15T00:26:28;43.10;;;20.17;;
32200;SDS011;18701;45.588;5.288;2024-01-15T00:28:54;45.67;;;21.30;;
32200;SDS011;18701;45.588;5.288;2024-01-15T00:31:20;41.60;;;21.25;;
32200;SDS011;18701;45.588;5.288;2024-01-15T00:33:45;48.83;;;22.15;;
32200;SDS011;18701;45.588;5.288;2024-01-15T00:36:11;41.35;;;21.45;;
32200;SDS011;18701;45.588;5.288;2024-01-15T00:38:36;39.72;;;20.00;;
32200;SDS011;18701;45.588;5.288;2024-01-15T00:41:02;47.13;;;20.70;;
32200;SDS011;18701;45.588;5.288;2024-01-15T00:43:28;45.17;;;19.83;;
32200;SDS011;18701;45.588;5.288;2024-01-15T00:45:53;48.10;;;20.80;;
32200;SDS011;18701;45.588;5.288;2024-01-15T00:48:19;44.45;;;20.42;;
32200;SDS011;18701;45.588;5.288;2024-01-15T00:50:45;43.58;;;21.48;;
32200;SDS011;18701;45.588;5.288;2024-01-15T00:53:10;41.45;;;21.13;;
32200;SDS011;18701;45.588;5.288;2024-01-15T00:55:36;44.17;;;20.25;;
32200;SDS011;18701;45.588;5.288;2024-01-15T00:58:02;45.72;;;22.08;;
32200;SDS011;18701;45.588;5.288;2024-01-15T01:00:28;41.15;;;20.08;;
32200;SDS011;18701;45.588;5.288;2024-01-15T01:02:54;44.92;;;19.88;;
32200;SDS011;18701;45.588;5.288;2024-01-15T01:05:20;44.58;;;20.35;;
32200;SDS011;18701;45.588;5.288;2024-01-15T01:07:46;41.45;;;19.35;;
32200;SDS011;18701;45.588;5.288;2024-01-15T01:10:12;43.30;;;20.98;;
32200;SDS011;18701;45.588;5.288;2024-01-15T01:12:37;42.10;;;20.00;;
32200;SDS011;18701;45.588;5.288;2024-01-15T01:15:03;42.72;;;19.92;;
32200;SDS011;18701;45.588;5.288;2024-01-15T01:17:29;40.83;;;19.33;;
32200;SDS011;18701;45.588;5.288;2024-01-15T01:19:55;40.35;;;19.52;;
32200;SDS011;18701;45.588;5.288;2024-01-15T01:22:21;40.72;;;18.70;;
32200;SDS011;18701;45.588;5.288;2024-01-15T01:24:46;43.15;;;19.67;;
32200;SDS011;18701;45.588;5.288;2024-01-15T01:27:12;37.42;;;18.20;;
32200;SDS011;18701;45.588;5.288;2024-01-15T01:29:38;40.65;;;19.48;;
32200;SDS011;18701;45.588;5.288;2024-01-15T01:32:03;43.85;;;19.75;;
32200;SDS011;18701;45.588;5.288;2024-01-15T01:34:29;45.92;;;20.10;;
32200;SDS011;18701;45.588;5.288;2024-01-15T01:36:55;40.90;;;19.80;;
32200;SDS011;18701;45.588;5.288;2024-01-15T01:39:20;43.22;;;20.63;;
32200;SDS011;18701;45.588;5.288;2024-01-15T01:41:46;44.15;;;20.48;;
32200;SDS011;18701;45.588;5.288;2024-01-15T01:44:12;42.97;;;19.45;;
32200;SDS011;18701;45.588;5.288;2024-01-15T01:46:37;38.15;;;19.27;;
32200;SDS011;18701;45.588;5.288;2024-01-15T01:49:05;39.38;;;19.70;;
32200;SDS011;18701;45.588;5.288;2024-01-15T01:51:35;41.20;;;20.77;;
32200;SDS011;18701;45.588;5.288;2024-01-15T01:54:04;46.17;;;20.45;;
32200;SDS011;18701;45.588;5.288;2024-01-15T01:56:33;43.05;;;19.40;;
32200;SDS011;18701;45.588;5.288;2024-01-15T01:58:59;39.70;;;18.85;;
32200;SDS011;18701;45.588;5.288;2024-01-15T02:01:26;42.40;;;19.05;;
32200;SDS011;18701;45.588;5.288;2024-01-15T02:03:51;39.22;;;19.23;;
32200;SDS011;18701;45.588;5.288;2024-01-15T02:06:17;40.15;;;18.13;;
32200;SDS011;18701;45.588;5.288;2024-01-15T02:08:43;39.38;;;18.83;;
32200;SDS011;18701;45.588;5.288;2024-01-15T02:11:09;41.13;;;18.90;;
32200;SDS011;18701;45.588;5.288;2024-01-15T02:13:35;37.30;;;17.02;;
32200;SDS011;18701;45.588;5.288;2024-01-15T02:16:01;35.97;;;17.65;;
32200;SDS011;18701;45.588;5.288;2024-01-15T02:18:27;36.30;;;18.08;;
32200;SDS011;18701;45.588;5.288;2024-01-15T02:20:52;39.60;;;17.95;;
32200;SDS011;18701;45.588;5.288;2024-01-15T02:23:18;33.90;;;16.33;;
32200;SDS011;18701;45.588;5.288;2024-01-15T02:25:44;34.97;;;16.58;;
32200;SDS011;18701;45.588;5.288;2024-01-15T02:28:11;36.13;;;16.73;;
32200;SDS011;18701;45.588;5.288;2024-01-15T02:30:38;37.30;;;18.55;;
32200;SDS011;18701;45.588;5.288;2024-01-15T02:33:05;36.58;;;17.00;;
32200;SDS011;18701;45.588;5.288;2024-01-15T02:35:32;33.45;;;16.75;;
32200;SDS011;18701;45.588;5.288;2024-01-15T02:38:03;40.50;;;18.45;;
32200;SDS011;18701;45.588;5.288;2024-01-15T02:40:30;35.90;;;17.25;;
32200;SDS011;18701;45.588;5.288;2024-01-15T02:42:55;46.88;;;18.23;;
32200;SDS011;18701;45.588;5.288;2024-01-15T02:45:21;35.88;;;17.05;;
32200;SDS011;18701;45.588;5.288;2024-01-15T02:47:47;41.25;;;17.83;;
32200;SDS011;18701;45.588;5.288;2024-01-15T02:50:13;32.17;;;16.80;;
32200;SDS011;18701;45.588;5.288;2024-01-15T02:52:39;34.45;;;16.17;;
32200;SDS011;18701;45.588;5.288;2024-01-15T02:55:06;38.10;;;18.20;;
32200;SDS011;18701;45.588;5.288;2024-01-15T02:57:32;37.05;;;17.80;;
32200;SDS011;18701;45.588;5.288;2024-01-15T03:00:00;36.25;;;17.48;;
32200;SDS011;18701;45.588;5.288;2024-01-15T03:02:26;36.42;;;17.98;;
32200;SDS011;18701;45.588;5.288;2024-01-15T03:04:51;36.92;;;17.70;;
32200;SDS011;18701;45.588;5.288;2024-01-15T03:07:17;34.72;;;17.00;;
32200;SDS011;18701;45.588;5.288;2024-01-15T03:09:43;36.05;;;17.35;;
32200;SDS011;18701;45.588;5.288;2024-01-15T03:12:09;38.10;;;17.58;;
32200;SDS011;18701;45.588;5.288;2024-01-15T03:14:36;33.45;;;16.38;;
32200;SDS011;18701;45.588;5.288;2024-01-15T03:17:01;34.95;;;17.00;;
32200;SDS011;18701;45.588;5.288;2024-01-15T03:19:27;37.35;;;17.10;;
32200;SDS011;18701;45.588;5.288;2024-01-15T03:21:53;39.03;;;18.38;;
32200;SDS011;18701;45.588;5.288;2024-01-15T03:24:19;32.20;;;16.80;;
32200;SDS011;18701;45.588;5.288;2024-01-15T03:26:45;37.63;;;18.00;;
32200;SDS011;18701;45.588;5.288;2024-01-15T03:29:10;40.05;;;17.65;;
32200;SDS011;18701;45.588;5.288;2024-01-15T03:31:36;37.60;;;18.08;;
32200;SDS011;18701;45.588;5.288;2024-01-15T03:34:02;37.88;;;18.02;;
32200;SDS011;18701;45.588;5.288;2024-01-15T03:36:28;33.47;;;16.52;;
32200;SDS011;18701;45.588;5.288;2024-01-15T03:38:54;36.15;;;16.17;;
32200;SDS011;18701;45.588;5.288;2024-01-15T03:41:19;36.47;;;17.90;;
32200;SDS011;18701;45.588;5.288;2024-01-15T03:43:45;36.05;;;18.40;;
32200;SDS011;18701;45.588;5.288;2024-01-15T03:46:11;37.17;;;17.15;;
32200;SDS011;18701;45.588;5.288;2024-01-15T03:48:37;34.65;;;17.38;;
32200;SDS011;18701;45.588;5.288;2024-01-15T03:51:03;38.92;;;17.00;;
32200;SDS011;18701;45.588;5.288;2024-01-15T03:53:29;35.85;;;16.83;;
32200;SDS011;18701;45.588;5.288;2024-01-15T03:55:54;32.10;;;16.30;;
32200;SDS011;18701;45.588;5.288;2024-01-15T03:58:20;37.25;;;17.05;;
32200;SDS011;18701;45.588;5.288;2024-01-15T04:00:46;41.92;;;18.45;;
32200;SDS011;18701;45.588;5.288;2024-01-15T04:03:11;36.58;;;18.20;;
32200;SDS011;18701;45.588;5.288;2024-01-15T04:05:37;37.45;;;17.23;;
32200;SDS011;18701;45.588;5.288;2024-01-15T04:08:03;39.55;;;17.80;;
32200;SDS011;18701;45.588;5.288;2024-01-15T04:10:29;38.47;;;17.35;;
32200;SDS011;18701;45.588;5.288;2024-01-15T04:12:55;35.70;;;16.85;;
32200;SDS011;18701;45.588;5.288;2024-01-15T04:15:20;43.35;;;19.50;;
32200;SDS011;18701;45.588;5.288;2024-01-15T04:17:46;38.35;;;18.85;;
32200;SDS011;18701;45.588;5.288;2024-01-15T04:20:11;37.33;;;18.23;;
32200;SDS011;18701;45.588;5.288;2024-01-15T04:22:37;37.67;;;18.08;;
32200;SDS011;18701;45.588;5.288;2024-01-15T04:25:03;37.95;;;17.05;;
32200;SDS011;18701;45.588;5.288;2024-01-15T04:27:28;38.58;;;17.88;;
32200;SDS011;18701;45.588;5.288;2024-01-15T04:29:54;39.80;;;18.92;;
32200;SDS011;18701;45.588;5.288;2024-01-15T04:32:20;34.10;;;17.45;;
32200;SDS011;18701;45.588;5.288;2024-01-15T04:34:45;37.90;;;17.73;;
32200;SDS011;18701;45.588;5.288;2024-01-15T04:37:11;40.63;;;19.55;;
32200;SDS011;18701;45.588;5.288;2024-01-15T04:39:38;38.53;;;18.10;;
32200;SDS011;18701;45.588;5.288;2024-01-15T04:42:04;36.47;;;18.63;;
32200;SDS011;18701;45.588;5.288;2024-01-15T04:44:30;40.30;;;20.33;;
32200;SDS011;18701;45.588;5.288;2024-01-15T04:46:55;38.72;;;18.95;;
32200;SDS011;18701;45.588;5.288;2024-01-15T04:49:21;39.78;;;17.98;;
32200;SDS011;18701;45.588;5.288;2024-01-15T04:51:46;39.53;;;18.40;;
32200;SDS011;18701;45.588;5.288;2024-01-15T04:54:12;44.97;;;19.25;;
32200;SDS011;18701;45.588;5.288;2024-01-15T04:56:42;38.65;;;17.98;;
32200;SDS011;18701;45.588;5.288;2024-01-15T04:59:08;41.30;;;19.95;;
32200;SDS011;18701;45.588;5.288;2024-01-15T05:01:34;39.55;;;19.13;;
32200;SDS011;18701;45.588;5.288;2024-01-15T05:03:59;40.20;;;19.10;;
32200;SDS011;18701;45.588;5.288;2024-01-15T05:06:25;34.17;;;17.10;;
32200;SDS011;18701;45.588;5.288;2024-01-15T05:08:50;34.00;;;16.67;;
32200;SDS011;18701;45.588;5.288;2024-01-15T05:11:16;37.30;;;18.35;;
32200;SDS011;18701;45.588;5.288;2024-01-15T05:13:42;35.90;;;18.52;;
32200;SDS011;18701;45.588;5.288;2024-01-15T05:16:08;36.20;;;17.70;;
32200;SDS011;18701;45.588;5.288;2024-01-15T05:18:33;36.55;;;18.63;;
32200;SDS011;18701;45.588;5.288;2024-01-15T05:20:59;36.70;;;17.60;;
32200;SDS011;18701;45.588;5.288;2024-01-15T05:23:26;39.33;;;19.02;;
32200;SDS011;18701;45.588;5.288;2024-01-15T05:25:51;41.28;;;20.00;;
32200;SDS011;18701;45.588;5.288;2024-01-15T05:28:17;46.75;;;19.58;;
32200;SDS011;18701;45.588;5.288;2024-01-15T05:30:43;36.72;;;18.40;;
32200;SDS011;18701;45.588;5.288;2024-01-15T05:33:08;44.13;;;19.10;;
32200;SDS011;18701;45.588;5.288;2024-01-15T05:35:34;39.08;;;18.60;;
32200;SDS011;18701;45.588;5.288;2024-01-15T05:37:59;40.92;;;20.13;;
32200;SDS011;18701;45.588;5.288;2024-01-15T05:40:25;46.92;;;20.00;;
32200;SDS011;18701;45.588;5.288;2024-01-15T05:42:51;44.42;;;19.95;;
32200;SDS011;18701;45.588;5.288;2024-01-15T05:45:16;40.47;;;19.83;;
32200;SDS011;18701;45.588;5.288;2024-01-15T05:47:42;36.22;;;19.25;;
32200;SDS011;18701;45.588;5.288;2024-01-15T05:50:09;39.40;;;19.13;;
32200;SDS011;18701;45.588;5.288;2024-01-15T05:52:35;40.83;;;19.13;;
32200;SDS011;18701;45.588;5.288;2024-01-15T05:55:00;41.85;;;18.98;;
32200;SDS011;18701;45.588;5.288;2024-01-15T05:57:26;39.45;;;18.88;;
32200;SDS011;18701;45.588;5.288;2024-01-15T05:59:53;40.30;;;19.15;;
32200;SDS011;18701;45.588;5.288;2024-01-15T06:02:18;40.97;;;18.90;;
32200;SDS011;18701;45.588;5.288;2024-01-15T06:04:44;39.88;;;18.80;;
32200;SDS011;18701;45.588;5.288;2024-01-15T06:07:10;44.40;;;19.13;;
32200;SDS011;18701;45.588;5.288;2024-01-15T06:09:35;36.95;;;17.92;;
32200;SDS011;18701;45.588;5.288;2024-01-15T06:12:01;40.47;;;19.08;;
32200;SDS011;18701;45.588;5.288;2024-01-15T06:14:27;36.13;;;18.27;;
32200;SDS011;18701;45.588;5.288;2024-01-15T06:16:52;37.33;;;18.58;;
32200;SDS011;18701;45.588;5.288;2024-01-15T06:19:18;41.10;;;18.63;;
32200;SDS011;18701;45.588;5.288;2024-01-15T06:21:44;42.40;;;19.38;;
32200;SDS011;18701;45.588;5.288;2024-01-15T06:24:09;39.20;;;18.85;;
32200;SDS011;18701;45.588;5.288;2024-01-15T06:26:35;44.28;;;20.50;;
32200;SDS011;18701;45.588;5.288;2024-01-15T06:29:01;47.80;;;22.40;;
32200;SDS011;18701;45.588;5.288;2024-01-15T06:31:28;45.13;;;20.70;;
32200;SDS011;18701;45.588;5.288;2024-01-15T06:33:53;38.55;;;19.27;;
32200;SDS011;18701;45.588;5.288;2024-01-15T06:36:20;42.53;;;20.75;;
32200;SDS011;18701;45.588;5.288;2024-01-15T06:38:46;48.28;;;20.73;;
32200;SDS011;18701;45.588;5.288;2024-01-15T06:41:11;41.15;;;20.67;;
32200;SDS011;18701;45.588;5.288;2024-01-15T06:43:37;42.15;;;20.08;;
32200;SDS011;18701;45.588;5.288;2024-01-15T06:46:02;45.15;;;21.38;;
32200;SDS011;18701;45.588;5.288;2024-01-15T06:48:28;42.03;;;20.50;;
32200;SDS011;18701;45.588;5.288;2024-01-15T06:50:54;45.25;;;21.65;;
32200;SDS011;18701;45.588;5.288;2024-01-15T06:53:19;49.60;;;22.48;;
32200;SDS011;18701;45.588;5.288;2024-01-15T06:55:45;46.08;;;21.15;;
32200;SDS011;18701;45.588;5.288;2024-01-15T06:58:11;52.03;;;23.15;;
32200;SDS011;18701;45.588;5.288;2024-01-15T07:00:37;50.70;;;22.33;;
32200;SDS011;18701;45.588;5.288;2024-01-15T07:03:03;46.75;;;22.60;;
32200;SDS011;18701;45.588;5.288;2024-01-15T07:05:28;47.47;;;22.42;;
32200;SDS011;18701;45.588;5.288;2024-01-15T07:07:55;42.78;;;21.55;;
32200;SDS011;18701;45.588;5.288;2024-01-15T07:10:21;45.17;;;22.70;;
32200;SDS011;18701;45.588;5.288;2024-01-15T07:12:46;48.50;;;22.55;;
32200;SDS011;18701;45.588;5.288;2024-01-15T07:15:12;45.42;;;22.23;;
32200;SDS011;18701;45.588;5.288;2024-01-15T07:17:38;45.63;;;21.88;;
32200;SDS011;18701;45.588;5.288;2024-01-15T07:20:05;44.80;;;22.00;;
32200;SDS011;18701;45.588;5.288;2024-01-15T07:22:33;49.00;;;23.67;;
32200;SDS011;18701;45.588;5.288;2024-01-15T07:25:00;46.70;;;21.38;;
32200;SDS011;18701;45.588;5.288;2024-01-15T07:27:25;49.10;;;23.25;;
32200;SDS011;18701;45.588;5.288;2024-01-15T07:29:51;48.90;;;22.80;;
32200;SDS011;18701;45.588;5.288;2024-01-15T07:32:17;44.28;;;22.17;;
32200;SDS011;18701;45.588;5.288;2024-01-15T07:34:43;50.15;;;23.75;;
32200;SDS011;18701;45.588;5.288;2024-01-15T07:37:08;47.60;;;23.08;;
32200;SDS011;18701;45.588;5.288;2024-01-15T07:39:34;48.15;;;22.45;;
32200;SDS011;18701;45.588;5.288;2024-01-15T07:42:00;47.45;;;20.95;;
32200;SDS011;18701;45.588;5.288;2024-01-15T07:44:25;48.92;;;23.13;;
32200;SDS011;18701;45.588;5.288;2024-01-15T07:46:51;49.35;;;22.90;;
32200;SDS011;18701;45.588;5.288;2024-01-15T07:49:17;46.08;;;22.35;;
32200;SDS011;18701;45.588;5.288;2024-01-15T07:51:42;41.50;;;22.13;;
32200;SDS011;18701;45.588;5.288;2024-01-15T07:54:08;44.08;;;21.05;;
32200;SDS011;18701;45.588;5.288;2024-01-15T07:56:52;47.53;;;22.75;;
32200;SDS011;18701;45.588;5.288;2024-01-15T07:59:22;41.47;;;21.83;;
32200;SDS011;18701;45.588;5.288;2024-01-15T08:01:48;45.58;;;22.15;;
32200;SDS011;18701;45.588;5.288;2024-01-15T08:04:13;46.45;;;21.52;;
32200;SDS011;18701;45.588;5.288;2024-01-15T08:06:39;43.85;;;21.10;;
32200;SDS011;18701;45.588;5.288;2024-01-15T08:09:05;44.33;;;21.08;;
32200;SDS011;18701;45.588;5.288;2024-01-15T08:11:31;40.85;;;20.35;;
32200;SDS011;18701;45.588;5.288;2024-01-15T08:13:56;41.50;;;21.15;;
32200;SDS011;18701;45.588;5.288;2024-01-15T08:16:22;43.50;;;20.67;;
32200;SDS011;18701;45.588;5.288;2024-01-15T08:18:50;45.97;;;21.55;;
32200;SDS011;18701;45.588;5.288;2024-01-15T08:21:15;42.38;;;20.83;;
32200;SDS011;18701;45.588;5.288;2024-01-15T08:23:41;42.55;;;20.75;;
32200;SDS011;18701;45.588;5.288;2024-01-15T08:26:07;39.78;;;20.35;;
32200;SDS011;18701;45.588;5.288;2024-01-15T08:28:33;39.05;;;20.25;;
32200;SDS011;18701;45.588;5.288;2024-01-15T08:30:59;41.53;;;22.17;;
32200;SDS011;18701;45.588;5.288;2024-01-15T08:33:25;40.05;;;20.48;;
32200;SDS011;18701;45.588;5.288;2024-01-15T08:35:50;40.88;;;21.15;;
32200;SDS011;18701;45.588;5.288;2024-01-15T08:38:16;43.83;;;22.15;;
32200;SDS011;18701;45.588;5.288;2024-01-15T08:40:42;44.50;;;20.58;;
32200;SDS011;18701;45.588;5.288;2024-01-15T08:43:07;39.00;;;20.40;;
32200;SDS011;18701;45.588;5.288;2024-01-15T08:45:33;39.03;;;19.60;;
32200;SDS011;18701;45.588;5.288;2024-01-15T08:47:58;43.33;;;21.17;;
32200;SDS011;18701;45.588;5.288;2024-01-15T08:50:24;44.88;;;21.55;;
32200;SDS011;18701;45.588;5.288;2024-01-15T08:52:50;44.72;;;21.63;;
32200;SDS011;18701;45.588;5.288;2024-01-15T08:55:15;45.42;;;21.80;;
32200;SDS011;18701;45.588;5.288;2024-01-15T08:57:41;39.85;;;19.85;;
32200;SDS011;18701;45.588;5.288;2024-01-15T09:00:06;44.15;;;21.65;;
32200;SDS011;18701;45.588;5.288;2024-01-15T09:02:35;44.38;;;20.92;;
32200;SDS011;18701;45.588;5.288;2024-01-15T09:05:01;48.47;;;21.88;;
32200;SDS011;18701;45.588;5.288;2024-01-15T09:07:27;42.28;;;21.52;;
32200;SDS011;18701;45.588;5.288;2024-01-15T09:09:52;38.70;;;19.58;;
32200;SDS011;18701;45.588;5.288;2024-01-15T09:12:18;38.20;;;20.33;;
32200;SDS011;18701;45.588;5.288;2024-01-15T09:14:46;39.38;;;19.70;;
32200;SDS011;18701;45.588;5.288;2024-01-15T09:17:12;38.55;;;20.20;;
32200;SDS011;18701;45.588;5.288;2024-01-15T09:19:37;38.72;;;20.85;;
32200;SDS011;18701;45.588;5.288;2024-01-15T09:22:07;37.22;;;20.42;;
32200;SDS011;18701;45.588;5.288;2024-01-15T09:24:32;44.25;;;21.20;;
32200;SDS011;18701;45.588;5.288;2024-01-15T09:26:58;43.78;;;22.30;;
32200;SDS011;18701;45.588;5.288;2024-01-15T09:29:23;39.70;;;21.05;;
32200;SDS011;18701;45.588;5.288;2024-01-15T09:31:49;44.25;;;22.20;;
32200;SDS011;18701;45.588;5.288;2024-01-15T09:34:15;43.55;;;21.08;;
32200;SDS011;18701;45.588;5.288;2024-01-15T09:36:42;40.10;;;20.35;;
32200;SDS011;18701;45.588;5.288;2024-01-15T09:39:10;49.25;;;21.38;;
32200;SDS011;18701;45.588;5.288;2024-01-15T09:41:36;41.13;;;20.70;;
32200;SDS011;18701;45.588;5.288;2024-01-15T09:44:03;41.72;;;20.52;;
32200;SDS011;18701;45.588;5.288;2024-01-15T09:46:29;40.00;;;19.50;;
32200;SDS011;18701;45.588;5.288;2024-01-15T09:48:57;39.65;;;19.15;;
32200;SDS011;18701;45.588;5.288;2024-01-15T09:51:23;34.63;;;19.08;;
32200;SDS011;18701;45.588;5.288;2024-01-15T09:53:49;42.83;;;19.60;;
32200;SDS011;18701;45.588;5.288;2024-01-15T09:56:15;41.10;;;20.17;;
32200;SDS011;18701;45.588;5.288;2024-01-15T09:58:41;39.65;;;19.85;;
32200;SDS011;18701;45.588;5.288;2024-01-15T10:01:08;38.20;;;19.52;;
32200;SDS011;18701;45.588;5.288;2024-01-15T10:03:34;39.33;;;20.67;;
32200;SDS011;18701;45.588;5.288;2024-01-15T10:06:00;40.83;;;20.15;;
32200;SDS011;18701;45.588;5.288;2024-01-15T10:08:27;39.25;;;18.88;;
32200;SDS011;18701;45.588;5.288;2024-01-15T10:10:53;39.80;;;20.45;;
32200;SDS011;18701;45.588;5.288;2024-01-15T10:13:18;35.25;;;19.77;;
32200;SDS011;18701;45.588;5.288;2024-01-15T10:15:46;41.38;;;20.45;;
32200;SDS011;18701;45.588;5.288;2024-01-15T10:18:15;38.15;;;19.75;;
32200;SDS011;18701;45.588;5.288;2024-01-15T10:20:40;33.90;;;18.15;;
32200;SDS011;18701;45.588;5.288;2024-01-15T10:23:07;37.08;;;18.60;;
32200;SDS011;18701;45.588;5.288;2024-01-15T10:25:33;43.15;;;20.42;;
32200;SDS011;18701;45.588;5.288;2024-01-15T10:28:01;42.45;;;19.08;;
32200;SDS011;18701;45.588;5.288;2024-01-15T10:30:28;38.63;;;19.50;;
32200;SDS011;18701;45.588;5.288;2024-01-15T10:33:00;34.90;;;20.08;;
32200;SDS011;18701;45.588;5.288;2024-01-15T10:35:27;40.83;;;19.90;;
32200;SDS011;18701;45.588;5.288;2024-01-15T10:37:56;45.15;;;20.00;;
32200;SDS011;18701;45.588;5.288;2024-01-15T10:40:22;34.90;;;18.92;;
32200;SDS011;18701;45.588;5.288;2024-01-15T10:42:48;38.78;;;18.48;;
32200;SDS011;18701;45.588;5.288;2024-01-15T10:45:14;39.67;;;19.73;;
32200;SDS011;18701;45.588;5.288;2024-01-15T10:47:42;33.38;;;17.88;;
32200;SDS011;18701;45.588;5.288;2024-01-15T10:50:08;34.80;;;18.35;;
32200;SDS011;18701;45.588;5.288;2024-01-15T10:52:35;35.97;;;17.45;;
32200;SDS011;18701;45.588;5.288;2024-01-15T10:55:06;31.10;;;18.05;;
32200;SDS011;18701;45.588;5.288;2024-01-15T10:57:34;33.97;;;17.98;;
32200;SDS011;18701;45.588;5.288;2024-01-15T11:00:06;32.70;;;16.75;;
32200;SDS011;18701;45.588;5.288;2024-01-15T11:02:34;38.95;;;17.60;;
32200;SDS011;18701;45.588;5.288;2024-01-15T11:05:02;33.55;;;17.70;;
32200;SDS011;18701;45.588;5.288;2024-01-15T11:07:29;35.72;;;18.23;;
32200;SDS011;18701;45.588;5.288;2024-01-15T11:09:57;36.53;;;18.25;;
32200;SDS011;18701;45.588;5.288;2024-01-15T11:12:25;42.42;;;21.40;;
32200;SDS011;18701;45.588;5.288;2024-01-15T11:14:51;47.85;;;23.70;;
32200;SDS011;18701;45.588;5.288;2024-01-15T11:17:19;49.80;;;24.92;;
32200;SDS011;18701;45.588;5.288;2024-01-15T11:19:45;48.78;;;24.88;;
32200;SDS011;18701;45.588;5.288;2024-01-15T11:25:14;46.78;;;23.77;;
32200;SDS011;18701;45.588;5.288;2024-01-15T11:27:41;48.53;;;25.88;;
32200;SDS011;18701;45.588;5.288;2024-01-15T11:30:08;55.53;;;25.85;;
32200;SDS011;18701;45.588;5.288;2024-01-15T11:32:35;53.25;;;26.65;;
32200;SDS011;18701;45.588;5.288;2024-01-15T11:35:01;51.05;;;25.25;;
32200;SDS011;18701;45.588;5.288;2024-01-15T11:38:13;47.55;;;24.48;;
32200;SDS011;18701;45.588;5.288;2024-01-15T11:40:20;50.35;;;25.40;;
32200;SDS011;18701;45.588;5.288;2024-01-15T11:42:47;50.22;;;23.77;;
32200;SDS011;18701;45.588;5.288;2024-01-15T11:45:18;47.60;;;24.38;;
32200;SDS011;18701;45.588;5.288;2024-01-15T11:50:31;44.67;;;21.20;;
32200;SDS011;18701;45.588;5.288;2024-01-15T11:53:01;43.08;;;21.33;;
32200;SDS011;18701;45.588;5.288;2024-01-15T11:58:01;46.13;;;21.38;;
32200;SDS011;18701;45.588;5.288;2024-01-15T12:00:30;39.78;;;20.98;;
32200;SDS011;18701;45.588;5.288;2024-01-15T12:02:58;42.28;;;21.05;;
32200;SDS011;18701;45.588;5.288;2024-01-15T12:05:24;46.35;;;21.58;;
32200;SDS011;18701;45.588;5.288;2024-01-15T12:07:50;41.45;;;21.38;;
32200;SDS011;18701;45.588;5.288;2024-01-15T12:10:19;39.03;;;21.35;;
32200;SDS011;18701;45.588;5.288;2024-01-15T12:15:38;41.13;;;20.25;;
32200;SDS011;18701;45.588;5.288;2024-01-15T12:18:06;34.30;;;18.80;;
32200;SDS011;18701;45.588;5.288;2024-01-15T12:20:33;36.53;;;20.10;;
32200;SDS011;18701;45.588;5.288;2024-01-15T12:22:59;35.00;;;19.70;;
32200;SDS011;18701;45.588;5.288;2024-01-15T12:25:25;43.15;;;20.98;;
32200;SDS011;18701;45.588;5.288;2024-01-15T12:27:52;44.28;;;19.88;;
32200;SDS011;18701;45.588;5.288;2024-01-15T12:30:18;34.38;;;18.50;;
32200;SDS011;18701;45.588;5.288;2024-01-15T12:32:44;34.47;;;18.55;;
32200;SDS011;18701;45.588;5.288;2024-01-15T12:35:12;37.17;;;20.10;;
32200;SDS011;18701;45.588;5.288;2024-01-15T12:37:41;44.30;;;19.33;;
32200;SDS011;18701;45.588;5.288;2024-01-15T12:40:08;34.25;;;18.33;;
32200;SDS011;18701;45.588;5.288;2024-01-15T12:42:35;32.13;;;18.33;;
32200;SDS011;18701;45.588;5.288;2024-01-15T12:45:02;30.08;;;16.75;;
32200;SDS011;18701;45.588;5.288;2024-01-15T12:47:29;38.20;;;18.80;;
32200;SDS011;18701;45.588;5.288;2024-01-15T12:49:57;37.63;;;19.13;;
32200;SDS011;18701;45.588;5.288;2024-01-15T12:52:22;37.88;;;19.00;;
32200;SDS011;18701;45.588;5.288;2024-01-15T12:54:48;35.35;;;19.58;;
32200;SDS011;18701;45.588;5.288;2024-01-15T12:57:15;39.70;;;19.80;;
32200;SDS011;18701;45.588;5.288;2024-01-15T12:59:41;32.90;;;19.65;;
32200;SDS011;18701;45.588;5.288;2024-01-15T13:02:07;34.20;;;18.73;;
32200;SDS011;18701;45.588;5.288;2024-01-15T13:04:33;37.45;;;19.33;;
32200;SDS011;18701;45.588;5.288;2024-01-15T13:06:58;38.95;;;18.90;;
32200;SDS011;18701;45.588;5.288;2024-01-15T13:09:24;31.92;;;18.38;;
32200;SDS011;18701;45.588;5.288;2024-01-15T13:11:50;34.15;;;18.13;;
32200;SDS011;18701;45.588;5.288;2024-01-15T13:14:16;37.67;;;17.88;;
32200;SDS011;18701;45.588;5.288;2024-01-15T13:16:41;32.15;;;17.10;;
32200;SDS011;18701;45.588;5.288;2024-01-15T13:19:10;35.08;;;16.92;;
32200;SDS011;18701;45.588;5.288;2024-01-15T13:21:41;32.10;;;17.90;;
32200;SDS011;18701;45.588;5.288;2024-01-15T13:24:07;28.25;;;16.98;;
32200;SDS011;18701;45.588;5.288;2024-01-15T13:26:34;37.45;;;17.05;;
32200;SDS011;18701;45.588;5.288;2024-01-15T13:29:02;33.00;;;18.48;;
32200;SDS011;18701;45.588;5.288;2024-01-15T13:31:31;27.67;;;15.80;;
32200;SDS011;18701;45.588;5.288;2024-01-15T13:33:57;30.38;;;15.35;;
32200;SDS011;18701;45.588;5.288;2024-01-15T13:36:23;27.00;;;15.75;;
32200;SDS011;18701;45.588;5.288;2024-01-15T13:38:49;32.05;;;15.98;;
32200;SDS011;18701;45.588;5.288;2024-01-15T13:41:16;34.03;;;16.92;;
32200;SDS011;18701;45.588;5.288;2024-01-15T13:43:44;32.05;;;16.35;;
32200;SDS011;18701;45.588;5.288;2024-01-15T13:46:14;32.47;;;18.13;;
32200;SDS011;18701;45.588;5.288;2024-01-15T13:48:39;32.15;;;15.82;;
32200;SDS011;18701;45.588;5.288;2024-01-15T13:51:05;27.00;;;15.95;;
32200;SDS011;18701;45.588;5.288;2024-01-15T13:53:31;34.33;;;16.77;;
32200;SDS011;18701;45.588;5.288;2024-01-15T13:55:57;29.90;;;16.48;;
32200;SDS011;18701;45.588;5.288;2024-01-15T13:58:22;31.38;;;16.40;;
32200;SDS011;18701;45.588;5.288;2024-01-15T14:00:50;31.88;;;16.25;;
32200;SDS011;18701;45.588;5.288;2024-01-15T14:03:16;29.58;;;15.00;;
32200;SDS011;18701;45.588;5.288;2024-01-15T14:05:41;28.40;;;15.80;;
32200;SDS011;18701;45.588;5.288;2024-01-15T14:08:07;26.42;;;15.77;;
32200;SDS011;18701;45.588;5.288;2024-01-15T14:10:33;29.15;;;15.68;;
32200;SDS011;18701;45.588;5.288;2024-01-15T14:12:59;28.77;;;15.65;;
32200;SDS011;18701;45.588;5.288;2024-01-15T14:15:24;30.13;;;16.42;;
32200;SDS011;18701;45.588;5.288;2024-01-15T14:17:50;25.98;;;15.85;;
32200;SDS011;18701;45.588;5.288;2024-01-15T14:20:16;30.42;;;16.27;;
32200;SDS011;18701;45.588;5.288;2024-01-15T14:22:42;29.67;;;16.38;;
32200;SDS011;18701;45.588;5.288;2024-01-15T14:25:08;25.58;;;15.35;;
32200;SDS011;18701;45.588;5.288;2024-01-15T14:27:34;33.00;;;16.73;;